EGXW - Waddington
Distance from station: E 5mi, 14km
Updated: 07/21/2018 5:50pm
Clear
Clear
 Wind from W
Wind: W 6 mph , 9 km/h
Temperature: 61°F , 16°C
Dew Point: 55°F , 13°C
Humidity: 83%
Barometer: 29.94 inHg , 1014 hPa
Summary: Clear
Visibility: greater than 7 miles , 10 km
2018/07/22 00:50 EGXW 220050Z 26005KT CAVOK 16/13 Q1014 BLU